Time;durP1;ratioP1;P1;durP2;ratioP2;P2;SDS_P1;SDS_P2;PMS_P1;PMS_P2;Temp;Humidity;BMP_temperature;BMP_pressure;BME280_temperature;BME280_humidity;BME280_pressure;Samples;Min_cycle;Max_cycle;Signal;HPM_P1;HPM_P2
2022/07/05 00:01:23;;;;;;;5.63;3.50;;;15.00;99.90;;;;;;6274282;28;20060;-80
2022/07/05 00:04:27;;;;;;;7.28;3.50;;;14.90;99.90;;;;;;6295929;28;20337;-80
2022/07/05 00:07:29;;;;;;;7.30;3.80;;;14.80;99.90;;;;;;6298527;28;20041;-80
2022/07/05 00:10:31;;;;;;;6.30;3.65;;;14.70;99.90;;;;;;6299619;28;20048;-81
2022/07/05 00:13:33;;;;;;;5.88;3.28;;;14.60;99.90;;;;;;6299044;28;20049;-79
2022/07/05 00:16:35;;;;;;;7.32;3.45;;;14.50;99.90;;;;;;6296207;28;20037;-79
2022/07/05 00:19:39;;;;;;;5.85;3.70;;;14.40;99.90;;;;;;6297868;28;20474;-79
2022/07/05 00:22:41;;;;;;;5.95;3.78;;;14.40;99.90;;;;;;6298826;28;20044;-78
2022/07/05 00:25:43;;;;;;;6.25;3.65;;;14.40;99.90;;;;;;6298433;28;20053;-79
2022/07/05 00:28:45;;;;;;;6.55;3.63;;;14.30;99.90;;;;;;6298268;28;20044;-78
2022/07/05 00:31:47;;;;;;;5.75;3.58;;;14.30;99.90;;;;;;6298935;28;20040;-78
2022/07/05 00:34:50;;;;;;;6.55;4.03;;;14.20;99.90;;;;;;6298853;28;20482;-79
2022/07/05 00:37:52;;;;;;;7.07;3.90;;;14.20;99.90;;;;;;6296629;28;20050;-79
2022/07/05 00:40:54;;;;;;;5.10;3.90;;;14.10;99.90;;;;;;6296973;28;20059;-79
2022/07/05 00:43:58;;;;;;;7.50;4.75;;;14.10;99.90;;;;;;6298400;28;20055;-79
2022/07/05 00:47:00;;;;;;;7.63;4.20;;;14.00;99.90;;;;;;6295458;28;20505;-79
2022/07/05 00:50:04;;;;;;;6.97;3.90;;;14.00;99.90;;;;;;6298122;28;20048;-79
2022/07/05 00:53:06;;;;;;;6.78;4.10;;;14.00;99.90;;;;;;6297186;28;20485;-79
2022/07/05 00:56:08;;;;;;;6.75;4.10;;;13.90;99.90;;;;;;6297305;28;20065;-79
2022/07/05 00:59:10;;;;;;;6.25;4.10;;;13.90;99.90;;;;;;6291467;28;20393;-79
2022/07/05 01:02:12;;;;;;;8.10;4.25;;;13.90;99.90;;;;;;6296701;28;20048;-80
2022/07/05 01:05:15;;;;;;;5.90;3.80;;;13.90;99.90;;;;;;6296538;28;20215;-80
2022/07/05 01:08:18;;;;;;;6.43;4.10;;;13.80;99.90;;;;;;6297013;28;20394;-79
2022/07/05 01:11:20;;;;;;;6.28;4.07;;;13.80;99.90;;;;;;6295719;28;20059;-79
2022/07/05 01:14:23;;;;;;;9.20;4.40;;;13.80;99.90;;;;;;6297995;28;20055;-79
2022/07/05 01:17:25;;;;;;;6.20;3.72;;;13.70;99.90;;;;;;6295723;28;20055;-79
2022/07/05 01:20:29;;;;;;;7.18;4.03;;;13.70;99.90;;;;;;6296715;28;20049;-79
2022/07/05 01:23:33;;;;;;;;;;;13.70;99.90;;;;;;6297934;28;20048;-80
2022/07/05 01:26:35;;;;;;;7.10;3.95;;;13.70;99.90;;;;;;6276855;28;19928;-80
2022/07/05 01:29:37;;;;;;;6.07;3.58;;;13.70;99.90;;;;;;6295221;28;20052;-80
2022/07/05 01:32:39;;;;;;;6.78;3.95;;;13.60;99.90;;;;;;6296190;28;20052;-80
2022/07/05 01:35:41;;;;;;;5.25;4.15;;;13.70;99.90;;;;;;6297482;28;20053;-80
2022/07/05 01:38:45;;;;;;;4.78;3.50;;;13.60;99.90;;;;;;6294811;28;20119;-80
2022/07/05 01:41:48;;;;;;;5.28;4.03;;;13.60;99.90;;;;;;6295784;28;20056;-80
2022/07/05 01:44:50;;;;;;;5.90;4.00;;;13.60;99.90;;;;;;6295108;28;20048;-80
2022/07/05 01:47:52;;;;;;;9.43;3.80;;;13.60;99.90;;;;;;6295743;28;20432;-80
2022/07/05 01:50:58;;;;;;;8.05;4.20;;;13.60;99.90;;;;;;6295031;28;20060;-80
2022/07/05 01:54:01;;;;;;;8.40;4.00;;;13.60;99.90;;;;;;6297052;28;20044;-79
2022/07/05 01:57:05;;;;;;;10.63;4.78;;;13.60;99.90;;;;;;6295895;28;20041;-80
2022/07/05 02:00:08;;;;;;;7.55;4.45;;;13.60;99.90;;;;;;6294381;28;20076;-80
2022/07/05 02:03:13;;;;;;;6.13;4.35;;;13.50;99.90;;;;;;6296612;28;20049;-79
2022/07/05 02:06:15;;;;;;;7.55;4.43;;;13.50;99.90;;;;;;6296483;28;20562;-80
2022/07/05 02:09:18;;;;;;;7.43;4.60;;;13.50;99.90;;;;;;6295695;28;20045;-79
2022/07/05 02:12:20;;;;;;;9.68;4.28;;;13.40;99.90;;;;;;6296780;28;20052;-79
2022/07/05 02:15:22;;;;;;;6.50;3.80;;;13.40;99.90;;;;;;6296185;28;20527;-78
2022/07/05 02:18:24;;;;;;;8.13;4.55;;;13.40;99.90;;;;;;6295861;28;20413;-78
2022/07/05 02:21:26;;;;;;;10.90;3.83;;;13.40;99.90;;;;;;6295146;28;20044;-79
2022/07/05 02:24:30;;;;;;;7.97;3.70;;;13.40;99.90;;;;;;6280905;28;20061;-80
2022/07/05 02:27:32;;;;;;;7.35;3.80;;;13.40;99.90;;;;;;6290202;28;20567;-79
2022/07/05 02:30:34;;;;;;;6.47;3.75;;;13.40;99.90;;;;;;6293622;28;20049;-79
2022/07/05 02:33:36;;;;;;;8.75;3.78;;;13.40;99.90;;;;;;6295130;28;20512;-79
2022/07/05 02:36:38;;;;;;;8.88;3.67;;;13.40;99.90;;;;;;6294059;28;21529;-79
2022/07/05 02:39:41;;;;;;;7.78;3.80;;;13.30;99.90;;;;;;6294222;28;20075;-79
2022/07/05 02:42:43;;;;;;;9.70;3.83;;;13.30;99.90;;;;;;6296258;28;20078;-79
2022/07/05 02:45:45;;;;;;;6.45;3.42;;;13.30;99.90;;;;;;6295260;28;20049;-79
2022/07/05 02:48:47;;;;;;;6.60;3.53;;;13.30;99.90;;;;;;6294921;28;20045;-79
2022/07/05 02:51:49;;;;;;;8.57;3.45;;;13.30;99.90;;;;;;6272544;28;20413;-80
2022/07/05 02:54:52;;;;;;;10.55;3.65;;;13.30;99.90;;;;;;6285043;28;20052;-79
2022/07/05 02:57:54;;;;;;;11.07;4.35;;;13.30;99.90;;;;;;6269736;28;20045;-79
2022/07/05 03:00:56;;;;;;;9.95;4.43;;;13.20;99.90;;;;;;6287370;28;20279;-79
2022/07/05 03:03:59;;;;;;;10.73;4.20;;;13.20;99.90;;;;;;6296072;28;20055;-79
2022/07/05 03:07:00;;;;;;;10.63;4.63;;;13.20;99.90;;;;;;6294993;28;20079;-79
2022/07/05 03:10:04;;;;;;;12.20;4.78;;;13.20;99.90;;;;;;6294174;28;20040;-79
2022/07/05 03:13:06;;;;;;;8.35;4.10;;;13.20;99.90;;;;;;6295990;28;20193;-79
2022/07/05 03:16:08;;;;;;;7.72;4.53;;;13.10;99.90;;;;;;6296023;28;20044;-79
2022/07/05 03:19:10;;;;;;;7.90;4.63;;;13.20;99.90;;;;;;6292967;28;20048;-79
2022/07/05 03:22:12;;;;;;;6.28;5.00;;;13.40;99.90;;;;;;6294697;28;20405;-79
2022/07/05 03:25:15;;;;;;;9.52;4.50;;;13.40;99.90;;;;;;6293846;28;20422;-77
2022/07/05 03:28:17;;;;;;;9.43;4.60;;;13.50;99.90;;;;;;6295756;28;20049;-75
2022/07/05 03:31:19;;;;;;;8.80;4.25;;;13.50;99.90;;;;;;6293918;28;20473;-75
2022/07/05 03:34:21;;;;;;;7.57;4.57;;;13.40;99.90;;;;;;6295310;28;20489;-75
2022/07/05 03:37:23;;;;;;;6.72;4.75;;;13.40;99.90;;;;;;6298505;28;20044;-75
2022/07/05 03:40:26;;;;;;;7.78;4.80;;;13.30;99.90;;;;;;6299172;28;20091;-75
2022/07/05 03:43:28;;;;;;;5.50;4.60;;;13.20;99.90;;;;;;6299708;28;20489;-75
2022/07/05 03:46:30;;;;;;;8.30;4.88;;;13.20;99.90;;;;;;6297444;28;20052;-76
2022/07/05 03:49:32;;;;;;;8.27;4.95;;;13.20;99.90;;;;;;6299074;28;20397;-75
2022/07/05 03:52:34;;;;;;;5.93;4.68;;;13.20;99.90;;;;;;6295939;28;20524;-75
2022/07/05 03:55:37;;;;;;;8.20;5.05;;;13.20;99.90;;;;;;6273379;28;20056;-75
2022/07/05 03:58:39;;;;;;;8.68;5.22;;;13.20;99.90;;;;;;6297976;28;20067;-75
2022/07/05 04:01:41;;;;;;;6.32;5.35;;;13.20;99.90;;;;;;6297938;28;20059;-75
2022/07/05 04:04:43;;;;;;;6.30;4.90;;;13.20;99.90;;;;;;6298015;28;20048;-75
2022/07/05 04:07:49;;;;;;;7.30;4.97;;;13.10;99.90;;;;;;6298548;28;20040;-75
2022/07/05 04:10:52;;;;;;;6.85;4.82;;;13.20;99.90;;;;;;6298118;28;20145;-75
2022/07/05 04:13:54;;;;;;;8.90;4.80;;;13.20;99.90;;;;;;6295851;28;20494;-75
2022/07/05 04:16:56;;;;;;;6.35;4.60;;;13.20;99.90;;;;;;6298204;28;20095;-75
2022/07/05 04:19:58;;;;;;;12.15;4.88;;;13.20;99.90;;;;;;6299062;28;20063;-75
2022/07/05 04:23:00;;;;;;;7.25;5.13;;;13.20;99.90;;;;;;6296293;28;20052;-75
2022/07/05 04:26:03;;;;;;;8.57;4.80;;;13.30;99.90;;;;;;6298007;28;20523;-75
2022/07/05 04:29:05;;;;;;;8.50;4.63;;;13.30;99.90;;;;;;6299023;28;20045;-75
2022/07/05 04:32:08;;;;;;;9.57;5.35;;;13.30;99.90;;;;;;6297577;28;20044;-75
2022/07/05 04:35:10;;;;;;;6.80;5.30;;;13.40;99.90;;;;;;6297701;28;20056;-75
2022/07/05 04:38:12;;;;;;;8.87;5.13;;;13.50;99.90;;;;;;6298907;28;20051;-75
2022/07/05 04:41:16;;;;;;;10.43;5.53;;;13.50;99.90;;;;;;6297200;28;20417;-75
2022/07/05 04:44:17;;;;;;;8.70;5.75;;;13.60;99.90;;;;;;6294986;28;20063;-74
2022/07/05 04:47:19;;;;;;;8.25;5.60;;;13.60;99.90;;;;;;6296431;28;20055;-75
2022/07/05 04:50:21;;;;;;;8.15;6.05;;;13.70;99.90;;;;;;6296697;28;20040;-75
2022/07/05 04:53:23;;;;;;;6.97;5.40;;;13.60;99.90;;;;;;6296355;28;20040;-75
2022/07/05 04:56:27;;;;;;;10.15;5.75;;;13.70;99.90;;;;;;6297193;28;20044;-75
2022/07/05 04:59:29;;;;;;;8.48;5.32;;;13.70;99.90;;;;;;6295229;28;20133;-75
2022/07/05 05:02:30;;;;;;;8.27;5.35;;;13.70;99.90;;;;;;6297531;28;20052;-75
2022/07/05 05:05:32;;;;;;;6.65;3.20;;;13.80;99.90;;;;;;6296483;28;20405;-75
2022/07/05 05:08:34;;;;;;;8.32;4.25;;;14.00;99.90;;;;;;6294616;28;20044;-76
2022/07/05 05:11:38;;;;;;;6.85;4.47;;;14.40;99.90;;;;;;6282206;28;20057;-75
2022/07/05 05:14:40;;;;;;;4.85;2.92;;;14.90;99.90;;;;;;6293628;28;20048;-75
2022/07/05 05:17:43;;;;;;;4.07;2.20;;;15.30;99.90;;;;;;6296510;28;20049;-75
2022/07/05 05:20:45;;;;;;;4.22;2.65;;;15.90;99.90;;;;;;6295509;28;20040;-76
2022/07/05 05:23:47;;;;;;;6.10;3.92;;;16.40;99.90;;;;;;6295164;28;20053;-75
2022/07/05 05:26:50;;;;;;;6.93;4.47;;;16.60;99.90;;;;;;6328774;28;20049;-75
2022/07/05 05:29:52;;;;;;;5.57;2.78;;;16.50;99.90;;;;;;6295412;28;20078;-75
2022/07/05 05:32:54;;;;;;;5.63;4.22;;;16.30;99.90;;;;;;6291987;28;20489;-76
2022/07/05 05:35:56;;;;;;;4.97;3.65;;;16.30;99.90;;;;;;6293069;28;20051;-76
2022/07/05 05:38:58;;;;;;;2.88;1.85;;;16.40;99.90;;;;;;6280473;28;20502;-76
2022/07/05 05:42:01;;;;;;;5.53;3.63;;;16.40;99.90;;;;;;6284931;28;20053;-76
2022/07/05 05:45:03;;;;;;;5.03;1.92;;;16.40;99.90;;;;;;6292382;28;20057;-75
2022/07/05 05:48:05;;;;;;;6.22;3.70;;;16.50;99.90;;;;;;6296631;28;20423;-75
2022/07/05 05:51:07;;;;;;;3.00;1.83;;;16.50;99.90;;;;;;6296055;28;20044;-76
2022/07/05 05:54:09;;;;;;;4.80;2.78;;;16.50;99.90;;;;;;6287937;28;20052;-75
2022/07/05 05:57:12;;;;;;;4.43;2.13;;;16.60;99.90;;;;;;6296104;28;20055;-76
2022/07/05 06:00:15;;;;;;;4.53;2.42;;;16.70;99.90;;;;;;6296721;28;20048;-76
2022/07/05 06:03:17;;;;;;;4.90;2.90;;;16.80;99.90;;;;;;6295930;28;20041;-76
2022/07/05 06:06:19;;;;;;;3.63;2.15;;;17.00;99.90;;;;;;6293818;28;20048;-76
2022/07/05 06:09:21;;;;;;;5.25;2.08;;;17.20;99.90;;;;;;6296560;28;20052;-76
2022/07/05 06:12:24;;;;;;;3.97;1.52;;;17.40;99.90;;;;;;6296846;28;20052;-76
2022/07/05 06:15:26;;;;;;;3.30;1.33;;;17.50;99.90;;;;;;6295377;28;20047;-76
2022/07/05 06:18:28;;;;;;;3.55;2.05;;;17.70;99.90;;;;;;6296340;28;20048;-76
2022/07/05 06:21:30;;;;;;;6.35;2.97;;;17.80;99.90;;;;;;6274885;28;20045;-76
2022/07/05 06:24:32;;;;;;;6.15;2.13;;;18.10;99.90;;;;;;6289112;28;20071;-76
2022/07/05 06:27:40;;;;;;;2.25;1.35;;;18.10;99.90;;;;;;6294847;28;20053;-76
2022/07/05 06:30:42;;;;;;;2.92;1.52;;;18.10;99.90;;;;;;6296110;28;20059;-76
2022/07/05 06:33:44;;;;;;;5.05;1.55;;;18.20;99.90;;;;;;6295466;28;20044;-76
2022/07/05 06:36:46;;;;;;;2.90;1.00;;;18.50;99.90;;;;;;6296025;28;20048;-76
2022/07/05 06:39:48;;;;;;;2.35;1.15;;;18.70;99.90;;;;;;6296191;28;20087;-76
2022/07/05 06:42:53;;;;;;;3.95;1.38;;;18.90;99.90;;;;;;6293594;28;20405;-76
2022/07/05 06:45:55;;;;;;;4.03;1.60;;;19.00;99.90;;;;;;6269838;28;20094;-76
2022/07/05 06:48:57;;;;;;;2.08;1.15;;;19.10;99.90;;;;;;6286773;28;20047;-76
2022/07/05 06:51:59;;;;;;;2.75;1.00;;;19.00;99.90;;;;;;6294780;28;20150;-76
2022/07/05 06:55:01;;;;;;;3.83;1.30;;;18.90;99.90;;;;;;6294776;28;20052;-76
2022/07/05 06:58:07;;;;;;;2.90;1.00;;;18.90;99.90;;;;;;6295840;28;20201;-76
2022/07/05 07:01:09;;;;;;;2.35;1.00;;;19.20;99.90;;;;;;6291956;28;20048;-76
2022/07/05 07:04:10;;;;;;;2.67;0.70;;;19.70;99.90;;;;;;6294586;28;20055;-76
2022/07/05 07:10:28;;;;;;;1.65;0.95;;;20.50;99.90;;;;;;6295292;28;20055;-76
2022/07/05 07:13:32;;;;;;;1.73;0.70;;;20.90;99.90;;;;;;6297905;28;20044;-76
2022/07/05 07:16:33;;;;;;;3.60;0.95;;;21.30;99.90;;;;;;6298881;28;20044;-74
2022/07/05 07:19:35;;;;;;;5.30;0.85;;;21.80;99.90;;;;;;6295862;28;20060;-73
2022/07/05 07:22:38;;;;;;;2.15;0.80;;;22.10;99.90;;;;;;6275444;28;20055;-74
2022/07/05 07:25:39;;;;;;;0.90;0.50;;;22.30;99.90;;;;;;6292782;28;20625;-73
2022/07/05 07:28:43;;;;;;;1.70;0.60;;;22.50;99.90;;;;;;6299560;28;20048;-73
2022/07/05 07:31:45;;;;;;;2.67;0.80;;;22.90;99.90;;;;;;6300352;28;20524;-74
2022/07/05 07:34:47;;;;;;;2.42;0.77;;;23.10;99.50;;;;;;6298064;28;20045;-76
2022/07/05 07:37:49;;;;;;;2.55;0.68;;;23.40;99.10;;;;;;6299975;28;20481;-74
2022/07/05 07:40:51;;;;;;;2.92;0.82;;;23.60;98.00;;;;;;6298763;28;20136;-75
2022/07/05 07:43:55;;;;;;;3.45;0.90;;;23.60;97.70;;;;;;6298537;28;20057;-76
2022/07/05 07:46:57;;;;;;;2.28;0.70;;;23.60;97.30;;;;;;6298178;28;20171;-75
2022/07/05 07:49:59;;;;;;;2.08;0.73;;;23.70;97.60;;;;;;6297479;28;20060;-75
2022/07/05 07:53:01;;;;;;;4.25;0.70;;;23.90;97.30;;;;;;6299631;28;20051;-75
2022/07/05 07:56:04;;;;;;;3.65;0.90;;;24.10;97.10;;;;;;6286038;28;20056;-75
2022/07/05 07:59:07;;;;;;;2.07;0.70;;;24.10;96.80;;;;;;6286730;28;20068;-75
2022/07/05 08:02:10;;;;;;;3.88;0.60;;;24.10;96.40;;;;;;6299056;28;20424;-76
2022/07/05 08:05:12;;;;;;;1.27;0.70;;;24.20;96.30;;;;;;6298321;28;20052;-73
2022/07/05 08:08:14;;;;;;;8.98;0.90;;;24.20;96.20;;;;;;6298501;28;20044;-74
2022/07/05 08:11:16;;;;;;;5.93;0.65;;;24.30;95.70;;;;;;6297927;28;20051;-74
2022/07/05 08:14:19;;;;;;;6.93;0.70;;;24.40;96.30;;;;;;6296985;28;20048;-73
2022/07/05 08:17:21;;;;;;;3.22;0.80;;;24.50;95.90;;;;;;6296072;28;20104;-71
2022/07/05 08:23:44;;;;;;;5.15;0.60;;;24.50;95.40;;;;;;6298177;28;20037;-73
2022/07/05 08:26:46;;;;;;;2.15;0.82;;;24.30;95.50;;;;;;6290796;28;20398;-73
2022/07/05 08:29:49;;;;;;;2.03;0.73;;;24.20;95.50;;;;;;6298960;28;20055;-73
2022/07/05 08:32:51;;;;;;;3.05;0.70;;;24.30;95.40;;;;;;6299291;28;20056;-74
2022/07/05 08:35:53;;;;;;;1.98;0.52;;;24.30;94.70;;;;;;6296916;28;20394;-73
2022/07/05 08:38:55;;;;;;;2.38;0.50;;;24.20;94.90;;;;;;6298371;28;20401;-73
2022/07/05 08:41:58;;;;;;;1.98;0.43;;;24.10;95.00;;;;;;6295062;28;20405;-76
2022/07/05 08:45:03;;;;;;;2.10;0.52;;;24.00;94.80;;;;;;6292815;28;20470;-76
2022/07/05 08:48:06;;;;;;;2.20;0.40;;;23.80;95.10;;;;;;6295120;28;20051;-74
2022/07/05 08:51:12;;;;;;;3.45;0.70;;;23.80;95.10;;;;;;6301215;28;20044;-74
2022/07/05 08:54:14;;;;;;;3.78;0.70;;;23.70;95.10;;;;;;6302642;28;21314;-73
2022/07/05 08:57:15;;;;;;;4.32;0.93;;;23.70;95.00;;;;;;6296463;28;20056;-75
2022/07/05 09:00:19;;;;;;;2.10;0.50;;;23.70;95.00;;;;;;6295575;28;20044;-74
2022/07/05 09:03:25;;;;;;;3.38;0.73;;;23.60;95.00;;;;;;6296537;28;20070;-73
2022/07/05 09:06:28;;;;;;;2.88;0.50;;;23.60;95.00;;;;;;6295329;28;20113;-73
2022/07/05 09:09:33;;;;;;;3.25;0.60;;;23.60;95.00;;;;;;6296221;28;20053;-77
2022/07/05 09:12:36;;;;;;;3.55;0.68;;;23.50;95.20;;;;;;6295508;28;20048;-75
2022/07/05 09:15:40;;;;;;;4.38;0.60;;;23.50;95.40;;;;;;6294010;28;20135;-75
2022/07/05 09:18:44;;;;;;;4.68;0.70;;;23.50;95.30;;;;;;6293827;28;20053;-76
2022/07/05 09:21:48;;;;;;;2.67;0.70;;;23.70;95.10;;;;;;6295526;28;20131;-76
2022/07/05 09:24:50;;;;;;;4.00;0.73;;;23.70;95.10;;;;;;6288203;28;20084;-76
2022/07/05 09:27:55;;;;;;;3.85;0.80;;;23.80;94.90;;;;;;6295674;28;20051;-76
2022/07/05 09:30:59;;;;;;;3.67;0.70;;;23.90;94.60;;;;;;6295071;28;20040;-76
2022/07/05 09:34:06;;;;;;;4.63;0.63;;;23.80;95.10;;;;;;6291931;28;20044;-76
2022/07/05 09:37:08;;;;;;;3.05;0.60;;;23.60;95.10;;;;;;6292153;28;20053;-75
2022/07/05 09:40:11;;;;;;;1.55;0.40;;;23.60;95.10;;;;;;6293332;28;20466;-72
2022/07/05 09:43:14;;;;;;;2.70;0.70;;;23.60;95.20;;;;;;6295069;28;20048;-73
2022/07/05 09:46:30;;;;;;;2.35;0.60;;;23.60;95.30;;;;;;6293541;28;20060;-74
2022/07/05 09:49:32;;;;;;;3.90;0.70;;;23.50;95.20;;;;;;6289633;28;20040;-76
2022/07/05 09:52:36;;;;;;;4.07;0.95;;;23.20;95.40;;;;;;6294822;28;20708;-75
2022/07/05 09:55:40;;;;;;;2.17;0.70;;;23.20;95.60;;;;;;6294645;28;20040;-74
2022/07/05 09:58:45;;;;;;;4.40;1.00;;;23.10;95.40;;;;;;6295841;28;20059;-74
2022/07/05 10:01:50;;;;;;;2.70;0.75;;;23.20;95.30;;;;;;6294141;28;20048;-75
2022/07/05 10:05:09;;;;;;;3.90;0.82;;;23.20;95.40;;;;;;6293454;28;20052;-74
2022/07/05 10:08:13;;;;;;;3.03;0.60;;;23.30;94.90;;;;;;6293349;28;20052;-75
2022/07/05 10:11:16;;;;;;;3.72;0.93;;;23.10;95.20;;;;;;6294438;28;20064;-73
2022/07/05 10:14:21;;;;;;;2.30;0.60;;;23.10;94.50;;;;;;6294690;28;20074;-74
2022/07/05 10:17:25;;;;;;;3.67;0.90;;;22.70;94.40;;;;;;6289220;28;20052;-75
2022/07/05 10:20:32;;;;;;;5.75;0.93;;;22.50;95.80;;;;;;6283979;28;20489;-75
2022/07/05 10:23:35;;;;;;;5.03;1.10;;;22.50;95.60;;;;;;6295142;28;20076;-74
2022/07/05 10:26:37;;;;;;;4.72;0.90;;;22.40;96.10;;;;;;6284529;28;20413;-75
2022/07/05 10:29:41;;;;;;;3.23;1.03;;;22.40;96.80;;;;;;6273378;28;20052;-76
2022/07/05 10:32:45;;;;;;;5.95;0.90;;;22.50;96.60;;;;;;6293964;28;20497;-77
2022/07/05 10:35:47;;;;;;;4.70;1.10;;;22.60;96.50;;;;;;6292386;28;20075;-77
2022/07/05 10:38:50;;;;;;;6.57;1.13;;;22.90;96.60;;;;;;6292513;28;20059;-76
2022/07/05 10:41:52;;;;;;;2.88;1.10;;;22.80;96.40;;;;;;6295491;28;20332;-76
2022/07/05 10:44:54;;;;;;;5.38;0.90;;;22.80;95.30;;;;;;6289409;28;20512;-78
2022/07/05 10:48:23;;;;;;;4.88;0.90;;;22.50;96.00;;;;;;6282414;28;20056;-76
2022/07/05 10:51:26;;;;;;;3.08;0.90;;;22.30;95.10;;;;;;6299248;28;20079;-78
2022/07/05 10:54:28;;;;;;;2.97;0.75;;;22.40;95.30;;;;;;6297703;28;20068;-79
2022/07/05 10:57:30;;;;;;;2.88;0.80;;;22.60;96.20;;;;;;6298693;28;20051;-77
2022/07/05 11:00:32;;;;;;;4.13;1.13;;;22.40;96.20;;;;;;6299374;28;20049;-76
2022/07/05 11:03:37;;;;;;;5.40;1.33;;;22.50;96.40;;;;;;6298835;28;20413;-78
2022/07/05 11:06:46;;;;;;;3.50;0.90;;;22.60;96.30;;;;;;6281803;28;20063;-76
2022/07/05 11:10:06;;;;;;;2.83;0.85;;;22.70;96.10;;;;;;6275043;28;20053;-77
2022/07/05 11:13:38;;;;;;;2.53;0.70;;;23.10;95.80;;;;;;6283626;28;20110;-77
2022/07/05 11:16:40;;;;;;;2.97;0.88;;;23.20;95.70;;;;;;6297138;28;20509;-77
2022/07/05 11:20:08;;;;;;;3.17;0.60;;;23.30;95.30;;;;;;6299646;28;20131;-76
2022/07/05 11:23:12;;;;;;;2.35;0.70;;;23.40;94.60;;;;;;6297968;28;20044;-77
2022/07/05 11:26:16;;;;;;;3.78;0.85;;;23.10;94.40;;;;;;6296692;28;20520;-76
2022/07/05 11:29:48;;;;;;;2.83;0.70;;;22.90;95.20;;;;;;6299205;28;20528;-77
2022/07/05 11:32:50;;;;;;;1.77;0.80;;;23.00;95.40;;;;;;6271121;28;20620;-77
2022/07/05 11:35:54;;;;;;;2.47;0.60;;;23.30;95.10;;;;;;6297621;28;20051;-78
2022/07/05 11:39:20;;;;;;;1.63;0.57;;;23.50;94.50;;;;;;6298917;28;20044;-78
2022/07/05 11:42:23;;;;;;;3.28;0.65;;;23.60;94.30;;;;;;6295048;28;20045;-78
2022/07/05 11:45:25;;;;;;;1.15;0.50;;;23.70;94.30;;;;;;6294812;28;20420;-76
2022/07/05 11:48:28;;;;;;;2.67;0.73;;;23.70;93.90;;;;;;6298291;28;20059;-76
2022/07/05 11:51:31;;;;;;;1.85;0.60;;;23.80;93.50;;;;;;6297879;28;20044;-77
2022/07/05 11:54:35;;;;;;;3.03;0.68;;;23.80;93.80;;;;;;6296384;28;20055;-77
2022/07/05 11:57:37;;;;;;;;;;;23.80;93.60;;;;;;6297520;28;20145;-77
2022/07/05 12:00:40;;;;;;;3.70;0.90;;;23.90;92.50;;;;;;6295701;28;20296;-77
2022/07/05 12:03:52;;;;;;;1.33;0.50;;;23.50;92.80;;;;;;6298244;28;20040;-78
2022/07/05 12:06:57;;;;;;;1.92;0.70;;;23.20;93.70;;;;;;6290948;28;20048;-76
2022/07/05 12:13:19;;;;;;;4.47;1.00;;;23.30;93.70;;;;;;6297757;28;20454;-76
2022/07/05 12:16:21;;;;;;;3.35;0.70;;;23.00;93.70;;;;;;6298927;28;20106;-77
2022/07/05 12:19:27;;;;;;;6.80;0.80;;;22.50;94.60;;;;;;6287490;28;20143;-75
2022/07/05 12:22:32;;;;;;;4.35;0.98;;;22.10;96.20;;;;;;6274081;28;20383;-76
2022/07/05 12:25:35;;;;;;;7.32;1.13;;;21.70;97.30;;;;;;6276458;28;20143;-76
2022/07/05 12:28:37;;;;;;;;;;;21.20;97.60;;;;;;6297441;28;20171;-76
2022/07/05 12:31:59;;;;;;;4.03;0.68;;;20.80;98.20;;;;;;6298590;28;19943;-78
2022/07/05 12:35:02;;;;;;;5.20;1.00;;;20.60;99.40;;;;;;6298581;28;20417;-76
2022/07/05 12:38:09;;;;;;;6.93;1.08;;;20.60;99.80;;;;;;6296145;28;20036;-76
2022/07/05 12:41:12;;;;;;;4.10;0.90;;;20.60;99.90;;;;;;6296826;28;20059;-77
2022/07/05 12:44:21;;;;;;;3.30;0.70;;;20.50;99.70;;;;;;6298227;28;20047;-75
2022/07/05 12:47:24;;;;;;;5.47;1.20;;;20.40;99.90;;;;;;6280045;28;20048;-75
2022/07/05 12:50:28;;;;;;;3.47;0.80;;;20.50;99.90;;;;;;6296166;28;20055;-75
2022/07/05 13:00:12;;;;;;;6.55;0.90;;;20.70;99.80;;;;;;6296516;28;20049;-76
2022/07/05 13:03:15;;;;;;;4.85;1.00;;;20.60;99.90;;;;;;6295804;28;20446;-76
2022/07/05 13:06:17;;;;;;;4.93;0.70;;;20.60;99.90;;;;;;6297863;28;20054;-76
2022/07/05 13:09:33;;;;;;;3.88;0.85;;;20.50;99.90;;;;;;6297107;28;20074;-76
2022/07/05 13:12:35;;;;;;;3.30;0.93;;;20.70;99.90;;;;;;6297024;28;20090;-75
2022/07/05 13:15:38;;;;;;;3.35;0.73;;;21.00;99.90;;;;;;6276688;28;20052;-75
2022/07/05 13:18:40;;;;;;;3.88;0.77;;;21.20;99.50;;;;;;6272501;28;20049;-76
2022/07/05 13:21:42;;;;;;;4.15;0.70;;;21.10;97.70;;;;;;6281000;28;20037;-76
2022/07/05 13:24:45;;;;;;;4.88;1.00;;;20.80;98.00;;;;;;6296124;28;20509;-76
2022/07/05 13:27:48;;;;;;;4.40;0.88;;;20.80;98.90;;;;;;6297332;28;20050;-76
2022/07/05 13:30:50;;;;;;;2.90;0.60;;;20.80;97.10;;;;;;6296844;28;20045;-76
2022/07/05 13:33:51;;;;;;;1.40;0.57;;;20.80;97.00;;;;;;6296519;28;20049;-75
2022/07/05 13:36:54;;;;;;;4.35;0.60;;;20.80;97.20;;;;;;6294946;28;20060;-75
2022/07/05 13:39:57;;;;;;;2.63;0.60;;;20.80;96.20;;;;;;6296897;28;20063;-77
2022/07/05 13:42:59;;;;;;;2.95;0.63;;;20.60;96.50;;;;;;6294731;28;20048;-75
2022/07/05 13:46:01;;;;;;;2.42;0.60;;;20.60;96.70;;;;;;6274411;28;20049;-76
2022/07/05 13:49:03;;;;;;;3.95;0.60;;;20.90;96.70;;;;;;6272334;28;20126;-75
2022/07/05 13:52:06;;;;;;;3.50;0.90;;;20.90;96.40;;;;;;6278232;28;20048;-75
2022/07/05 13:55:10;;;;;;;2.17;0.60;;;20.90;96.90;;;;;;6295112;28;20048;-76
2022/07/05 13:58:12;;;;;;;2.00;0.55;;;20.90;97.30;;;;;;6296312;28;20049;-76
2022/07/05 14:01:14;;;;;;;1.58;0.55;;;21.10;97.00;;;;;;6296208;28;20048;-75
2022/07/05 14:04:16;;;;;;;3.85;0.63;;;21.40;96.80;;;;;;6294952;28;20508;-77
2022/07/05 14:07:17;;;;;;;3.90;1.17;;;21.30;96.30;;;;;;6296377;28;20071;-75
2022/07/05 14:10:23;;;;;;;3.13;0.75;;;21.20;96.30;;;;;;6296594;28;20052;-75
2022/07/05 14:13:26;;;;;;;5.70;0.90;;;21.30;96.80;;;;;;6295653;28;20048;-75
2022/07/05 14:16:28;;;;;;;2.80;0.65;;;21.20;96.60;;;;;;6296877;28;20110;-75
2022/07/05 14:19:30;;;;;;;4.95;0.88;;;21.00;97.10;;;;;;6296215;28;20250;-75
2022/07/05 14:22:32;;;;;;;1.88;0.68;;;21.00;97.10;;;;;;6294209;28;20055;-74
2022/07/05 14:25:36;;;;;;;5.30;0.98;;;20.90;97.90;;;;;;6293701;28;20413;-74
2022/07/05 14:28:38;;;;;;;4.43;0.90;;;21.10;97.20;;;;;;6291899;28;20127;-74
2022/07/05 14:31:39;;;;;;;4.80;0.85;;;21.10;97.30;;;;;;6290749;28;20052;-74
2022/07/05 14:34:41;;;;;;;4.10;0.80;;;21.20;97.10;;;;;;6271342;28;20056;-75
2022/07/05 14:37:43;;;;;;;3.05;0.70;;;21.50;97.10;;;;;;6286364;28;20103;-74
2022/07/05 14:40:47;;;;;;;3.08;0.80;;;21.70;95.50;;;;;;6296264;28;20055;-74
2022/07/05 14:43:49;;;;;;;4.35;0.93;;;21.90;97.10;;;;;;6281630;28;20053;-75
2022/07/05 14:46:51;;;;;;;3.28;0.60;;;22.30;95.40;;;;;;6289663;28;20131;-75
2022/07/05 14:49:53;;;;;;;3.47;0.88;;;22.10;96.30;;;;;;6296093;28;20049;-74
2022/07/05 14:52:55;;;;;;;5.50;0.85;;;21.90;95.30;;;;;;6295159;28;20044;-75
2022/07/05 14:55:58;;;;;;;4.88;0.75;;;21.40;96.00;;;;;;6295815;28;20179;-74
2022/07/05 14:59:00;;;;;;;3.05;0.80;;;21.10;96.60;;;;;;6293261;28;20048;-75
2022/07/05 15:02:03;;;;;;;3.10;0.95;;;21.00;96.60;;;;;;6293719;28;20072;-74
2022/07/05 15:05:07;;;;;;;6.00;1.00;;;20.90;97.40;;;;;;6294178;28;20052;-75
2022/07/05 15:08:09;;;;;;;2.72;0.73;;;21.10;96.90;;;;;;6296099;28;20052;-74
2022/07/05 15:11:13;;;;;;;3.67;0.85;;;20.90;96.70;;;;;;6294796;28;20102;-75
2022/07/05 15:14:15;;;;;;;6.32;1.55;;;20.70;97.00;;;;;;6293277;28;20465;-75
2022/07/05 15:17:17;;;;;;;4.10;0.90;;;20.60;97.50;;;;;;6295875;28;20045;-74
2022/07/05 15:20:22;;;;;;;4.55;0.80;;;20.40;96.80;;;;;;6297455;28;20135;-75
2022/07/05 15:23:27;;;;;;;2.42;0.60;;;20.10;97.00;;;;;;6293433;28;20139;-76
2022/07/05 15:26:30;;;;;;;5.88;1.08;;;20.00;97.40;;;;;;6295378;28;20053;-75
2022/07/05 15:29:33;;;;;;;4.78;0.75;;;19.90;97.30;;;;;;6295645;28;20056;-74
2022/07/05 15:32:36;;;;;;;6.13;1.10;;;19.90;97.80;;;;;;6299455;28;20052;-75
2022/07/05 15:35:38;;;;;;;3.30;0.60;;;20.00;97.30;;;;;;6299337;28;20484;-75
2022/07/05 15:38:40;;;;;;;2.28;0.70;;;20.10;96.90;;;;;;6300030;28;20086;-75
2022/07/05 15:41:43;;;;;;;3.42;0.70;;;19.90;96.90;;;;;;6290342;28;20048;-75
2022/07/05 15:44:45;;;;;;;3.92;1.13;;;19.90;97.10;;;;;;6295978;28;20093;-75
2022/07/05 15:47:48;;;;;;;2.83;0.70;;;19.70;97.10;;;;;;6299870;28;20055;-77
2022/07/05 15:50:49;;;;;;;2.30;0.68;;;19.70;97.10;;;;;;6298717;28;20036;-77
2022/07/05 15:53:51;;;;;;;2.40;0.68;;;19.70;96.80;;;;;;6298344;28;20059;-77
2022/07/05 15:56:56;;;;;;;2.05;0.50;;;19.80;96.90;;;;;;6290645;28;20060;-76
2022/07/05 15:59:59;;;;;;;3.05;1.27;;;19.70;97.10;;;;;;6297430;28;20040;-75
2022/07/05 16:03:01;;;;;;;3.45;0.70;;;19.80;97.50;;;;;;6298828;28;20045;-76
2022/07/05 16:06:03;;;;;;;2.67;0.70;;;19.90;97.20;;;;;;6299615;28;20048;-76
2022/07/05 16:09:05;;;;;;;4.45;0.93;;;19.70;97.20;;;;;;6297104;28;20044;-76
2022/07/05 16:12:10;;;;;;;2.83;1.03;;;19.50;97.60;;;;;;6296117;28;20520;-74